Neelyville, Missouri
Current Conditions -  °F | °C
As of 4:53 PM on Wednesday 22 Oct 2014 (Local Time) from KPOF Reporting Station
Clear Clear  
Wind Chill: 65°   Ceiling: Unl
Heat Index: 65°   Visibility: 10mi
Dew Point: 40°   Wind: 9mph
Humidity: 40%   Direction: 60°ENE
Pressure: 30.2"   Gusts: NA
Location:  36.56°N, 90.51°W
Report Text: KPOF 222153Z AUTO 06008KT 10SM CLR 18/04 A3020 RMK AO2 SLP225 T01830044
Loading
Personal Weather Stations






























Interactive Weather Map
Tropical Storm Tracking
New forecast layout! Learn more

10-Day Weather Forecast

Advertisements
Track Severe Weather on mobile